METAR Data
IDs: Format: Raw Decoded Include TAF

Data at: 2151 UTC 01 Dec 2021

KTUL 012053Z 28004KT 10SM SCT250 21/04 A3001 RMK AO2 SLP159 T02060039 56010